• Join FlightAware (Why Join?)
  • Login
  • US Flag 
02:43PM EDT


 

Airport Tracker/Info


-or-


 

Live Flight TrackerFlight Track Log ✈ SWA2624 ✈ 30-Apr-2013 ✈ KABQ - KLAS

Flight Track Log - Related Links

Times and Time Zones

All times are in EDT time to prevent confusion due to time zone crossing. See the SWA2624 flight status page for this flight to view local times or setup timezone preferences in your user account.

Time Position Orientation Groundspeed Altitude Reporting Facility
EDT Latitude Longitude Course Direction KTS MPH feet Rate Location/Type
11:25PM 35.0261 -106.6253 228° Southwest 135 155 6,100  Level Albuquerque Center
11:26PM 35.0053 -106.6539 228° Southwest 162 186 8,000 2,760 Climbing Albuquerque Center
11:27PM 34.9867 -106.6825 232° Southwest 188 216 10,100 2,940 Climbing Albuquerque Center
11:28PM 35.0100 -106.7833 286° West 260 299 13,100 3,180 Climbing Albuquerque Center
11:29PM 35.0417 -106.8958 289° West 328 377 16,700 3,420 Climbing Albuquerque Center
11:30PM 35.0789 -107.0067 292° West 359 413 20,200 3,780 Climbing Albuquerque Center
11:31PM 35.1261 -107.1378 294° West 375 432 24,500 3,540 Climbing Albuquerque Center
11:32PM 35.1669 -107.2572 293° West 393 452 27,500 1,920 Climbing Albuquerque Center
11:33PM 35.1892 -107.4011 281° West 405 466 28,500 1,680 Climbing Albuquerque Center
11:34PM 35.2094 -107.5436 280° West 412 474 31,000 2,220 Climbing Albuquerque Center
11:35PM 35.2219 -107.6836 276° West 426 490 33,100 1,920 Climbing Albuquerque Center
11:36PM 35.2361 -107.8500 276° West 436 502 35,000 1,200 Climbing Albuquerque Center
11:37PM 35.2494 -107.9872 277° West 428 493 35,600 1,440 Climbing Albuquerque Center
11:38PM 35.2619 -108.1244 276° West 425 489 38,000 2,100 Climbing Albuquerque Center
11:39PM 35.2761 -108.2806 276° West 416 479 40,000 960 Climbing Albuquerque Center
11:40PM 35.2883 -108.4175 276° West 418 481 40,000  Level Albuquerque Center
11:41PM 35.3000 -108.5539 276° West 419 482 40,000  Level Albuquerque Center
11:42PM 35.3131 -108.7103 276° West 415 478 40,000  Level Albuquerque Center
11:43PM 35.3242 -108.8439 276° West 412 474 40,000  Level Albuquerque Center
11:44PM 35.3367 -108.9806 276° West 416 479 40,000  Level Albuquerque Center
11:45PM 35.3492 -109.1378 276° West 415 478 40,000  Level Albuquerque Center
11:46PM 35.3603 -109.2733 276° West 416 479 40,000  Level Albuquerque Center
11:47PM 35.3731 -109.4300 276° West 414 476 40,000  Level Albuquerque Center
11:48PM 35.3831 -109.5622 275° West 411 473 40,000  Level Albuquerque Center
11:49PM 35.3925 -109.6972 275° West 412 474 40,000  Level Albuquerque Center
11:51PM 35.3869 -109.8892 276° West  Level FlightAware Approximate
11:53PM 35.4336 -110.2842 274° West 423 487 40,000  Level Los Angeles Center
11:55PM 35.4525 -110.5775 275° West 412 474 38,300 -900 Descending Albuquerque Center
11:56PM 35.4636 -110.7114 276° West 412 474 37,400 -900 Descending Albuquerque Center
11:57PM 35.4728 -110.8450 275° West 411 473 36,500 -1,020 Descending Albuquerque Center
11:58PM 35.4581 -110.7755 274° West  Level FlightAware Approximate
11:58PM 35.4819 -110.9992 274° West 409 471 35,400  Level Albuquerque Center
11:59PM 35.4644 -110.9025 274° West  Level FlightAware Approximate
11:59PM 35.4911 -111.1356 275° West 415 478 34,500  Level Albuquerque Center
12:00AM 35.5006 -111.2722 275° West 419 482 33,600 -1,020 Descending Albuquerque Center
12:01AM 35.5100 -111.4278 274° West 428 493 32,500 -1,020 Descending Albuquerque Center
12:02AM 35.5200 -111.5761 275° West 438 504 31,600 -960 Descending Albuquerque Center
12:03AM 35.5283 -111.7244 274° West 437 503 30,600 -840 Descending Albuquerque Center
12:04AM 35.5372 -111.8756 274° West 444 511 30,000 -300 Descending Albuquerque Center
12:05AM 35.5469 -112.0228 275° West 440 506 30,000 -240 Level Albuquerque Center
12:06AM 35.5539 -112.1678 273° West 432 497 29,600 -840 Descending Albuquerque Center
12:07AM 35.5642 -112.3408 274° West 427 491 28,300 -840 Descending Albuquerque Center
12:08AM 35.5725 -112.4825 274° West 421 484 28,000 -180 Descending Albuquerque Center
12:09AM 35.5803 -112.6222 274° West 419 482 28,000  Level Albuquerque Center
12:10AM 35.5875 -112.7611 274° West 416 479 28,000  Level Albuquerque Center
12:12AM 35.5958 -112.9406 273° West 421 484 28,000  Level Los Angeles Center
12:13AM 35.6031 -113.0750 274° West 418 481 28,000  Level Los Angeles Center
12:14AM 35.6094 -113.2183 273° West 419 482 28,000  Level Los Angeles Center
12:15AM 35.6178 -113.3786 274° West 422 486 28,000  Level Los Angeles Center
12:16AM 35.6236 -113.5211 273° West 422 486 28,000 -1,560 Level Los Angeles Center
12:17AM 35.6447 -113.6864 279° West 412 474 24,600 -3,240 Descending Los Angeles Center
12:18AM 35.6639 -113.8169 280° West 394 453 21,400 -2,640 Descending Los Angeles Center
12:19AM 35.6814 -113.9439 280° West 379 436 19,300 -1,800 Descending Los Angeles Center
12:20AM 35.6986 -114.0650 280° West 363 418 17,800 -2,220 Descending Los Angeles Center
12:21AM 35.7111 -114.1769 278° West 360 414 15,200 -2,820 Descending Los Angeles Center
12:22AM 35.7328 -114.3022 282° West 345 397 12,700 -1,680 Descending Los Angeles Center
12:23AM 35.7533 -114.3831 287° West 307 353 12,000 -600 Descending Los Angeles Center
12:23AM 35.7697 -114.3969 325° Northwest 306 352 12,000  Level Los Angeles Center
12:24AM 35.8219 -114.4475 322° Northwest 290 334 12,000 -240 Level Los Angeles Center
12:24AM 35.8308 -114.4581 316° Northwest 290 334 11,800 -1,020 Descending Los Angeles Center
12:25AM 35.8803 -114.5156 317° Northwest 289 333 11,000 -1,020 Descending Los Angeles Center
12:25AM 35.8908 -114.5256 322° Northwest 290 334 10,800 -960 Descending Los Angeles Center
12:27AM 36.0337 -114.5191 282° West  Level FlightAware Approximate
12:29AM 36.0736 -114.8147 270° West 253 291 6,900  Level Los Angeles Center
12:30AM 36.0739 -114.8708 270° West 228 262 6,400 -900 Descending Los Angeles Center
12:30AM 36.0744 -114.8939 272° West 240 276 6,000 -1,380 Descending Los Angeles Center
12:31AM 36.0728 -114.9458 268° West 206 237 5,000 -1,260 Descending Los Angeles Center
12:31AM 36.0733 -114.9644 272° West 225 259 4,700 -1,020 Descending Los Angeles Center
12:32AM 36.0742 -115.0011 272° West 181 208 4,100 -900 Descending Los Angeles Center
12:32AM 36.0742 -115.0203 270° West 193 222 3,800 -840 Descending Los Angeles Center
12:33AM 36.0739 -115.0492 269° West 131 151 3,300 -720 Descending Los Angeles Center
12:33AM 36.0736 -115.0642 269° West 159 183 3,100 -720 Descending Los Angeles Center
12:34AM 36.0667 -115.1500 270° West  Level FlightAware Approximate
12:34AM 36.0739 -115.0892 271° West 110 127 2,600  Level Los Angeles Center
12:34AM 36.0736 -115.0997 268° West 128 147 2,400 -420 Descending Los Angeles Center
12:35AM 36.0801 -115.1523 270° West  Level Estimated
12:35AM 36.0739 -115.1378 271° West 116 133 2,000  Level Los Angeles Center
12:37AM 36.0667 -115.1500 270° West  Level FlightAware Approximate